Terminal Aerodrome Forecast
Issued by NWS

Home | Current Version | Previous Version | Text Only | Print | Product List | Glossary On
Versions: 1 2 3 4 5 6 7 8 9 10 11 12 13 14 15 16 17 18 19 20 21 22 23 24 25 26 27 28 29 30 31 32 33 34 35 36 37 38
000
FTUS43 KDMX 181816 AAA
TAFFOD
TAF AMD
KFOD 181816Z 1818/1918 VRB06KT P6SM VCSH OVC050
     FM182200 14012KT 5SM RA BR SCT006 OVC015
     FM190700 13011KT 4SM BR VCSH SCT008 BKN018
     FM190800 VRB05KT 5SM BR VCSH SCT018 BKN030=

USA.gov is the U.S. government's official web portal to all federal, state and local government web resources and services.